createdAt,value
2018-01-02T00:02:04.229Z,97091.40
2018-01-02T00:04:31.781Z,97091.34
2018-01-02T00:06:59.307Z,97094.12
2018-01-02T00:09:26.822Z,97099.78
2018-01-02T00:11:54.341Z,97099.11
2018-01-02T00:14:21.897Z,97112.86
2018-01-02T00:16:49.409Z,97102.97
2018-01-02T00:19:16.936Z,97107.76
2018-01-02T00:21:44.466Z,97103.03
2018-01-02T00:24:12.038Z,97120.73
2018-01-02T00:26:39.567Z,97117.48
2018-01-02T00:29:07.118Z,97123.27
2018-01-02T00:31:34.664Z,97138.81
2018-01-02T00:34:02.222Z,97153.14
2018-01-02T00:36:29.753Z,97160.98
2018-01-02T00:38:57.281Z,97166.58
2018-01-02T00:41:24.846Z,97174.83
2018-01-02T00:43:52.386Z,97182.46
2018-01-02T00:46:19.913Z,97197.11
2018-01-02T00:48:47.438Z,97200.53
2018-01-02T00:51:15.198Z,97193.59
2018-01-02T00:53:42.733Z,97199.58
2018-01-02T00:56:10.272Z,97209.21
2018-01-02T00:58:37.796Z,97224.39
2018-01-02T01:01:05.331Z,97216.81
2018-01-02T01:03:32.971Z,97223.77
2018-01-02T01:06:00.536Z,97242.68
2018-01-02T01:08:28.083Z,97243.08
2018-01-02T01:10:55.591Z,97241.25
2018-01-02T01:13:23.108Z,97247.74
2018-01-02T01:15:50.637Z,97259.32
2018-01-02T01:18:18.181Z,97277.39
2018-01-02T01:20:45.748Z,97282.79
2018-01-02T01:23:13.306Z,97288.34
2018-01-02T01:25:40.823Z,97291.11
2018-01-02T01:28:08.343Z,97304.62
2018-01-02T01:30:35.876Z,97304.38
2018-01-02T01:33:03.417Z,97320.05
2018-01-02T01:35:30.952Z,97321.70
2018-01-02T01:37:58.478Z,97330.48
2018-01-02T01:40:26.011Z,97328.32
2018-01-02T01:42:53.527Z,97339.61
2018-01-02T01:45:21.160Z,97329.50
2018-01-02T01:47:48.677Z,97333.74
2018-01-02T01:50:16.218Z,97339.22
2018-01-02T01:52:43.732Z,97332.64
2018-01-02T01:55:11.261Z,97346.59
2018-01-02T01:57:38.786Z,97345.30
2018-01-02T02:00:06.427Z,97353.72
2018-01-02T02:02:33.958Z,97363.19
2018-01-02T02:05:01.653Z,97362.06
2018-01-02T02:07:29.185Z,97365.28
2018-01-02T02:09:56.711Z,97365.72
2018-01-02T02:12:24.269Z,97371.08
2018-01-02T02:14:51.797Z,97377.34
2018-01-02T02:17:19.322Z,97379.42
2018-01-02T02:19:46.838Z,97376.71
2018-01-02T02:22:14.368Z,97382.61
2018-01-02T02:24:41.882Z,97388.66
2018-01-02T02:27:09.408Z,97389.84
2018-01-02T02:29:36.948Z,97391.50
2018-01-02T02:32:04.484Z,97385.79
2018-01-02T02:34:32.039Z,97389.17
2018-01-02T02:36:59.542Z,97402.01
2018-01-02T02:39:27.068Z,97394.22
2018-01-02T02:41:54.603Z,97406.30
2018-01-02T02:44:22.103Z,97413.27
2018-01-02T02:46:49.636Z,97417.60
2018-01-02T02:49:17.156Z,97408.51
2018-01-02T02:51:45.529Z,97404.31
2018-01-02T02:54:13.047Z,97402.30
2018-01-02T02:56:40.601Z,97396.77
2018-01-02T02:59:08.129Z,97400.87
2018-01-02T03:01:35.687Z,97398.68
2018-01-02T03:04:03.205Z,97400.73
2018-01-02T03:06:30.722Z,97394.17
2018-01-02T03:08:58.243Z,97407.36
2018-01-02T03:11:25.769Z,97406.96
2018-01-02T03:13:53.298Z,97411.27
2018-01-02T03:16:20.834Z,97409.63
2018-01-02T03:18:48.359Z,97415.22
2018-01-02T03:21:15.889Z,97415.06
2018-01-02T03:23:43.452Z,97431.95
2018-01-02T03:26:10.962Z,97416.22
2018-01-02T03:28:38.498Z,97411.17
2018-01-02T03:31:06.024Z,97413.61
2018-01-02T03:33:33.538Z,97423.41
2018-01-02T03:36:01.067Z,97429.20
2018-01-02T03:38:28.704Z,97430.72
2018-01-02T03:40:56.238Z,97438.87
2018-01-02T03:43:23.768Z,97440.77
2018-01-02T03:45:51.287Z,97439.52
2018-01-02T03:48:18.801Z,97441.02
2018-01-02T03:50:46.329Z,97438.30
2018-01-02T03:53:13.872Z,97420.09
2018-01-02T03:55:41.397Z,97420.68
2018-01-02T03:58:08.949Z,97426.61
2018-01-02T04:00:36.486Z,97433.25
2018-01-02T04:03:04.011Z,97433.29
2018-01-02T04:05:31.526Z,97441.72
2018-01-02T04:07:59.043Z,97454.25
2018-01-02T04:10:26.588Z,97458.55
2018-01-02T04:12:54.124Z,97468.72
2018-01-02T04:15:21.657Z,97466.81
2018-01-02T04:17:49.179Z,97474.35
2018-01-02T04:20:16.698Z,97475.70
2018-01-02T04:22:44.204Z,97480.77
2018-01-02T04:25:11.716Z,97486.27
2018-01-02T04:27:39.253Z,97497.09
2018-01-02T04:30:06.781Z,97505.83
2018-01-02T04:32:34.310Z,97493.26
2018-01-02T04:35:01.813Z,97501.30
2018-01-02T04:37:29.328Z,97499.03
2018-01-02T04:39:56.862Z,97491.27
2018-01-02T04:42:24.533Z,97496.62
2018-01-02T04:44:52.098Z,97499.28
2018-01-02T04:47:19.659Z,97503.95
2018-01-02T04:49:47.210Z,97497.56
2018-01-02T04:52:14.733Z,97500.91
2018-01-02T04:54:42.288Z,97497.41
2018-01-02T04:57:09.821Z,97493.94
2018-01-02T04:59:41.234Z,97495.82
2018-01-02T05:02:08.735Z,97497.94
2018-01-02T05:04:36.306Z,97512.39
2018-01-02T05:07:03.849Z,97516.66
2018-01-02T05:09:31.362Z,97513.16
2018-01-02T05:11:58.883Z,97510.11
2018-01-02T05:14:26.419Z,97512.61
2018-01-02T05:16:53.938Z,97510.88
2018-01-02T05:19:21.469Z,97514.03
2018-01-02T05:21:49.019Z,97513.39
2018-01-02T05:24:16.532Z,97510.15
2018-01-02T05:26:44.052Z,97512.30
2018-01-02T05:29:11.567Z,97505.02
2018-01-02T05:31:39.077Z,97509.28
2018-01-02T05:34:06.595Z,97510.19
2018-01-02T05:36:34.128Z,97515.21
2018-01-02T05:39:01.648Z,97515.15
2018-01-02T05:41:29.165Z,97510.62
2018-01-02T05:43:56.684Z,97515.97
2018-01-02T05:46:24.224Z,97526.36
2018-01-02T05:48:51.755Z,97524.58
2018-01-02T05:51:19.304Z,97520.05
2018-01-02T05:53:47.522Z,97523.64
2018-01-02T05:56:15.298Z,97533.42
2018-01-02T05:58:42.848Z,97538.77
2018-01-02T06:01:10.367Z,97545.73
2018-01-02T06:03:37.922Z,97546.80
2018-01-02T06:06:05.429Z,97549.10
2018-01-02T06:08:32.943Z,97563.26
2018-01-02T06:11:00.464Z,97566.59
2018-01-02T06:13:27.999Z,97569.39
2018-01-02T06:15:55.518Z,97572.34
2018-01-02T06:18:23.048Z,97575.83
2018-01-02T06:20:50.597Z,97578.06
2018-01-02T06:23:18.112Z,97588.27
2018-01-02T06:25:45.639Z,97596.96
2018-01-02T06:28:13.163Z,97609.98
2018-01-02T06:30:40.679Z,97623.61
2018-01-02T06:33:08.214Z,97630.58
2018-01-02T06:35:35.772Z,97637.00
2018-01-02T06:38:03.288Z,97657.19
2018-01-02T06:40:30.789Z,97661.07
2018-01-02T06:42:58.328Z,97665.89
2018-01-02T06:45:25.857Z,97656.91
2018-01-02T06:47:53.384Z,97647.81
2018-01-02T06:50:20.967Z,97643.41
2018-01-02T06:52:48.493Z,97637.64
2018-01-02T06:55:16.017Z,97644.21
2018-01-02T06:57:43.553Z,97645.78
2018-01-02T07:00:11.243Z,97659.85
2018-01-02T07:02:38.788Z,97664.78
2018-01-02T07:05:06.325Z,97681.74
2018-01-02T07:07:33.898Z,97673.34
2018-01-02T07:10:01.453Z,97683.33
2018-01-02T07:12:28.976Z,97696.97
2018-01-02T07:14:56.520Z,97706.33
2018-01-02T07:17:24.036Z,97704.59
2018-01-02T07:19:51.565Z,97705.09
2018-01-02T07:22:19.163Z,97697.64
2018-01-02T07:24:46.823Z,97704.88
2018-01-02T07:27:14.348Z,97709.02
2018-01-02T07:29:41.864Z,97726.98
2018-01-02T07:32:09.374Z,97729.78
2018-01-02T07:34:36.942Z,97740.60
2018-01-02T07:37:04.464Z,97753.20
2018-01-02T07:39:32.008Z,97756.84
2018-01-02T07:41:59.548Z,97753.18
2018-01-02T07:44:27.064Z,97751.72
2018-01-02T07:46:54.692Z,97766.79
2018-01-02T07:49:22.228Z,97771.77
2018-01-02T07:51:49.752Z,97790.17
2018-01-02T07:54:17.317Z,97799.89
2018-01-02T07:56:44.849Z,97800.13
2018-01-02T07:59:12.359Z,97794.59
2018-01-02T08:01:39.904Z,97800.59
2018-01-02T08:04:07.424Z,97813.55
2018-01-02T08:06:34.986Z,97808.50
2018-01-02T08:09:02.520Z,97807.97
2018-01-02T08:11:30.052Z,97813.30
2018-01-02T08:13:57.607Z,97810.77
2018-01-02T08:16:25.163Z,97808.36
2018-01-02T08:18:52.694Z,97814.33
2018-01-02T08:21:20.325Z,97810.62
2018-01-02T08:23:47.845Z,97816.84
2018-01-02T08:26:15.638Z,97822.42
2018-01-02T08:28:43.180Z,97805.34
2018-01-02T08:31:10.704Z,97830.51
2018-01-02T08:33:38.200Z,97825.87
2018-01-02T08:36:05.745Z,97832.20
2018-01-02T08:38:33.270Z,97823.38
2018-01-02T08:41:00.856Z,97831.86
2018-01-02T08:43:28.369Z,97837.72
2018-01-02T08:45:55.908Z,97840.73
2018-01-02T08:48:23.442Z,97843.80
2018-01-02T08:50:51.009Z,97846.39
2018-01-02T08:53:18.534Z,97854.20
2018-01-02T08:55:46.080Z,97866.81
2018-01-02T08:58:13.604Z,97881.35
2018-01-02T09:00:41.163Z,97888.98
2018-01-02T09:03:08.700Z,97897.03
2018-01-02T09:05:36.225Z,97897.64
2018-01-02T09:08:03.760Z,97902.26
2018-01-02T09:10:31.295Z,97914.05
2018-01-02T09:12:58.863Z,97917.59
2018-01-02T09:15:26.400Z,97920.97
2018-01-02T09:17:53.940Z,97930.61
2018-01-02T09:20:21.466Z,97939.02
2018-01-02T09:22:49.025Z,97939.64
2018-01-02T09:25:16.535Z,97941.31
2018-01-02T09:27:44.073Z,97942.95
2018-01-02T09:30:11.655Z,97943.45
2018-01-02T09:32:39.189Z,97945.88
2018-01-02T09:35:06.735Z,97951.66
2018-01-02T09:37:34.266Z,97958.25
2018-01-02T09:40:01.802Z,97960.77
2018-01-02T09:42:29.344Z,97955.28
2018-01-02T09:44:56.991Z,97960.41
2018-01-02T09:47:24.525Z,97963.20
2018-01-02T09:49:52.070Z,97971.66
2018-01-02T09:52:19.610Z,97968.14
2018-01-02T09:54:47.138Z,97972.58
2018-01-02T09:57:14.660Z,97976.59
2018-01-02T09:59:42.193Z,97973.91
2018-01-02T10:02:09.716Z,97974.72
2018-01-02T10:04:37.431Z,97973.95
2018-01-02T10:07:05.380Z,97971.39
2018-01-02T10:09:32.923Z,97972.32
2018-01-02T10:12:00.455Z,97975.50
2018-01-02T10:14:27.973Z,97975.38
2018-01-02T10:16:55.495Z,97979.78
2018-01-02T10:19:23.044Z,97980.31
2018-01-02T10:21:50.615Z,97979.28
2018-01-02T10:24:18.154Z,97985.54
2018-01-02T10:26:45.685Z,97991.83
2018-01-02T10:29:13.219Z,97987.47
2018-01-02T10:31:40.754Z,97981.75
2018-01-02T10:34:08.283Z,97981.30
2018-01-02T10:36:35.801Z,97981.25
2018-01-02T10:39:03.339Z,97967.05
2018-01-02T10:41:30.861Z,97969.89
2018-01-02T10:43:58.376Z,97974.67
2018-01-02T10:46:25.948Z,97973.08
2018-01-02T10:48:53.479Z,97971.16
2018-01-02T10:51:21.005Z,97980.38
2018-01-02T10:53:48.535Z,97979.40
2018-01-02T10:56:16.100Z,97974.53
2018-01-02T10:58:43.624Z,97981.44
2018-01-02T11:01:11.151Z,97993.17
2018-01-02T11:03:38.693Z,97989.72
2018-01-02T11:06:06.226Z,97995.17
2018-01-02T11:08:33.745Z,97989.47
2018-01-02T11:11:07.014Z,97992.64
2018-01-02T11:13:40.279Z,97989.56
2018-01-02T11:16:07.810Z,97995.52
2018-01-02T11:18:35.335Z,97986.95
2018-01-02T11:21:02.875Z,97987.27
2018-01-02T11:23:38.194Z,97990.20
2018-01-02T11:26:05.920Z,97983.36
2018-01-02T11:28:33.494Z,97978.34
2018-01-02T11:31:01.140Z,97992.09
2018-01-02T11:33:28.703Z,97978.50
2018-01-02T11:35:56.246Z,97991.80
2018-01-02T11:38:23.829Z,98001.36
2018-01-02T11:40:51.390Z,98003.21
2018-01-02T11:43:18.919Z,98001.38
2018-01-02T11:45:46.475Z,97998.80
2018-01-02T11:48:13.981Z,97998.28
2018-01-02T11:50:41.500Z,97989.77
2018-01-02T11:53:09.055Z,97989.00
2018-01-02T11:55:36.579Z,97992.45
2018-01-02T11:58:04.123Z,97993.25
2018-01-02T12:00:31.649Z,98004.69
2018-01-02T12:02:59.169Z,98005.87
2018-01-02T12:05:26.691Z,98010.68
2018-01-02T12:07:54.220Z,98014.08
2018-01-02T12:10:21.747Z,98005.90
2018-01-02T12:12:49.304Z,98010.66
2018-01-02T12:15:16.850Z,98015.18
2018-01-02T12:17:44.360Z,98007.27
2018-01-02T12:20:11.906Z,98011.78
2018-01-02T12:22:39.469Z,98017.95
2018-01-02T12:25:07.015Z,98017.40
2018-01-02T12:27:34.558Z,98020.22
2018-01-02T12:30:02.143Z,98014.29
2018-01-02T12:32:29.656Z,98013.77
2018-01-02T12:34:57.189Z,98014.67
2018-01-02T12:37:24.783Z,98015.97
2018-01-02T12:39:52.311Z,98022.25
2018-01-02T12:42:19.840Z,98026.56
2018-01-02T12:44:47.356Z,98024.72
2018-01-02T12:47:14.889Z,98025.26
2018-01-02T12:49:42.421Z,98023.55
2018-01-02T12:52:10.029Z,98022.86
2018-01-02T12:54:37.559Z,98023.27
2018-01-02T12:57:05.106Z,98023.50
2018-01-02T12:59:32.627Z,98011.47
2018-01-02T13:02:00.169Z,98007.96
2018-01-02T13:04:27.733Z,98005.23
2018-01-02T13:06:55.280Z,97999.66
2018-01-02T13:09:22.814Z,97996.73
2018-01-02T13:11:50.370Z,98002.66
2018-01-02T13:14:17.905Z,97993.30
2018-01-02T13:16:45.469Z,97983.87
2018-01-02T13:19:12.995Z,97984.58
2018-01-02T13:21:40.507Z,97982.34
2018-01-02T13:24:08.068Z,97988.03
2018-01-02T13:26:35.714Z,97978.78
2018-01-02T13:29:03.273Z,97991.33
2018-01-02T13:31:30.795Z,97978.39
2018-01-02T13:33:58.351Z,97982.78
2018-01-02T13:36:25.897Z,97980.03
2018-01-02T13:38:53.422Z,97983.25
2018-01-02T13:41:20.952Z,97978.81
2018-01-02T13:43:48.511Z,97993.81
2018-01-02T13:46:16.246Z,97991.57
2018-01-02T13:48:43.795Z,97996.42
2018-01-02T13:51:11.346Z,98004.53
2018-01-02T13:53:38.890Z,98010.05
2018-01-02T13:56:06.430Z,98010.86
2018-01-02T13:58:33.950Z,98010.61
2018-01-02T14:01:01.507Z,98019.22
2018-01-02T14:03:29.049Z,98014.47
2018-01-02T14:05:56.590Z,98025.85
2018-01-02T14:08:24.115Z,98028.14
2018-01-02T14:10:51.625Z,98019.27
2018-01-02T14:13:19.162Z,98017.63
2018-01-02T14:15:46.685Z,98023.48
2018-01-02T14:18:14.209Z,98031.94
2018-01-02T14:20:41.736Z,98038.16
2018-01-02T14:23:09.256Z,98035.13
2018-01-02T14:25:36.780Z,98032.58
2018-01-02T14:28:04.326Z,98041.86
2018-01-02T14:30:31.853Z,98043.73
2018-01-02T14:32:59.400Z,98035.90
2018-01-02T14:35:26.935Z,98033.78
2018-01-02T14:37:54.477Z,98040.27
2018-01-02T14:40:22.009Z,98046.08
2018-01-02T14:42:49.549Z,98041.39
2018-01-02T14:45:17.080Z,98029.38
2018-01-02T14:47:44.601Z,98019.67
2018-01-02T14:50:12.156Z,98025.11
2018-01-02T14:52:39.674Z,98024.12
2018-01-02T14:55:07.204Z,98035.06
2018-01-02T14:57:34.717Z,98040.31
2018-01-02T15:00:02.216Z,98044.46
2018-01-02T15:02:29.789Z,98044.21
2018-01-02T15:04:57.347Z,98044.18
2018-01-02T15:07:24.871Z,98051.83
2018-01-02T15:09:52.376Z,98052.64
2018-01-02T15:12:19.886Z,98052.42
2018-01-02T15:14:47.444Z,98051.60
2018-01-02T15:17:14.956Z,98047.30
2018-01-02T15:19:42.477Z,98053.88
2018-01-02T15:22:10.132Z,98044.08
2018-01-02T15:24:37.673Z,98051.05
2018-01-02T15:27:05.208Z,98047.82
2018-01-02T15:29:32.736Z,98048.10
2018-01-02T15:32:00.266Z,98053.33
2018-01-02T15:34:27.797Z,98047.14
2018-01-02T15:36:55.320Z,98053.84
2018-01-02T15:39:23.057Z,98047.55
2018-01-02T15:41:50.580Z,98048.62
2018-01-02T15:44:18.161Z,98044.98
2018-01-02T15:46:45.676Z,98049.38
2018-01-02T15:49:13.209Z,98047.25
2018-01-02T15:51:42.011Z,98043.92
2018-01-02T15:54:09.565Z,98041.66
2018-01-02T15:56:37.130Z,98025.27
2018-01-02T15:59:04.674Z,98011.71
2018-01-02T16:01:32.197Z,98010.55
2018-01-02T16:03:59.732Z,97986.63
2018-01-02T16:06:27.339Z,97977.27
2018-01-02T16:08:54.896Z,97987.20
2018-01-02T16:11:22.490Z,97988.02
2018-01-02T16:13:49.994Z,98000.31
2018-01-02T16:16:17.562Z,97997.09
2018-01-02T16:18:45.084Z,97993.58
2018-01-02T16:21:12.618Z,97989.84
2018-01-02T16:23:40.292Z,97999.06
2018-01-02T16:26:07.829Z,97994.95
2018-01-02T16:28:35.342Z,97991.83
2018-01-02T16:31:02.906Z,97991.04
2018-01-02T16:33:30.478Z,97988.72
2018-01-02T16:35:57.996Z,97994.58
2018-01-02T16:38:25.527Z,97986.30
2018-01-02T16:40:53.042Z,97992.89
2018-01-02T16:43:20.565Z,97984.88
2018-01-02T16:45:48.108Z,97995.52
2018-01-02T16:48:15.644Z,97988.33
2018-01-02T16:50:43.200Z,97995.06
2018-01-02T16:53:10.736Z,97988.48
2018-01-02T16:55:38.283Z,97989.90
2018-01-02T16:58:05.811Z,97981.70
2018-01-02T17:00:33.380Z,97981.55
2018-01-02T17:03:00.920Z,97980.50
2018-01-02T17:05:28.445Z,97980.45
2018-01-02T17:07:55.981Z,97980.77
2018-01-02T17:10:23.505Z,97967.84
2018-01-02T17:12:51.027Z,97973.61
2018-01-02T17:15:18.566Z,97977.24
2018-01-02T17:17:46.141Z,97970.98
2018-01-02T17:20:13.673Z,97967.60
2018-01-02T17:22:41.551Z,97975.94
2018-01-02T17:25:09.425Z,97982.56
2018-01-02T17:27:37.290Z,97990.63
2018-01-02T17:30:05.257Z,97983.08
2018-01-02T17:32:33.124Z,97984.19
2018-01-02T17:35:01.086Z,97986.69
2018-01-02T17:37:29.174Z,97985.88
2018-01-02T17:39:57.026Z,97986.44
2018-01-02T17:42:24.997Z,97987.66
2018-01-02T17:44:52.851Z,97990.89
2018-01-02T17:47:20.834Z,97978.70
2018-01-02T17:49:48.802Z,97988.23
2018-01-02T17:52:16.610Z,97986.57
2018-01-02T17:54:44.431Z,97985.00
2018-01-02T17:57:12.097Z,97987.89
2018-01-02T17:59:39.947Z,97985.17
2018-01-02T18:02:07.616Z,97980.13
2018-01-02T18:04:35.388Z,97978.14
2018-01-02T18:07:03.042Z,97970.23
2018-01-02T18:09:30.603Z,97969.59
2018-01-02T18:11:58.207Z,97966.27
2018-01-02T18:14:25.741Z,97962.91
2018-01-02T18:16:53.326Z,97954.33
2018-01-02T18:19:20.867Z,97949.21
2018-01-02T18:21:48.406Z,97955.11
2018-01-02T18:24:16.368Z,97962.39
2018-01-02T18:26:44.135Z,97950.59
2018-01-02T18:29:11.651Z,97947.12
2018-01-02T18:31:40.573Z,97944.56
2018-01-02T18:34:08.866Z,97943.35
2018-01-02T18:36:36.913Z,97942.30
2018-01-02T18:39:06.652Z,97933.45
2018-01-02T18:41:34.820Z,97931.69
2018-01-02T18:44:02.357Z,97926.22
2018-01-02T18:46:29.875Z,97923.25
2018-01-02T18:48:59.633Z,97914.27
2018-01-02T18:51:27.206Z,97910.38
2018-01-02T18:53:54.732Z,97898.20
2018-01-02T18:56:23.127Z,97895.91
2018-01-02T19:02:01.921Z,97894.30
2018-01-02T19:04:57.100Z,97898.47
2018-01-02T19:07:28.591Z,97894.73
2018-01-02T19:09:56.622Z,97887.56
2018-01-02T19:12:24.195Z,97882.25
2018-01-02T19:14:51.721Z,97879.39
2018-01-02T19:17:19.332Z,97869.25
2018-01-02T19:19:47.041Z,97871.80
2018-01-02T19:22:14.631Z,97872.48
2018-01-02T19:24:42.151Z,97865.36
2018-01-02T19:27:09.691Z,97854.63
2018-01-02T19:29:38.007Z,97844.72
2018-01-02T19:32:05.567Z,97842.98
2018-01-02T19:34:34.098Z,97836.27
2018-01-02T19:37:01.788Z,97833.44
2018-01-02T19:39:29.312Z,97827.17
2018-01-02T19:41:56.851Z,97828.35
2018-01-02T19:44:24.390Z,97834.13
2018-01-02T19:46:53.084Z,97828.73
2018-01-02T19:49:20.735Z,97831.44
2018-01-02T19:51:48.285Z,97820.22
2018-01-02T19:54:15.962Z,97821.61
2018-01-02T19:56:44.776Z,97817.03
2018-01-02T19:59:12.407Z,97814.45
2018-01-02T20:01:40.531Z,97822.55
2018-01-02T20:04:09.222Z,97823.78
2018-01-02T20:06:37.037Z,97813.76
2018-01-02T20:09:05.205Z,97814.52
2018-01-02T20:11:36.417Z,97818.83
2018-01-02T20:14:04.416Z,97823.55
2018-01-02T20:16:32.390Z,97818.06
2018-01-02T20:19:00.155Z,97820.63
2018-01-02T20:21:28.147Z,97824.73
2018-01-02T20:23:56.594Z,97808.98
2018-01-02T20:26:24.333Z,97806.01
2018-01-02T20:28:51.997Z,97805.82
2018-01-02T20:31:19.591Z,97787.73
2018-01-02T20:33:47.172Z,97784.02
2018-01-02T20:36:14.772Z,97776.09
2018-01-02T20:38:43.496Z,97767.63
2018-01-02T20:41:11.076Z,97768.69
2018-01-02T20:43:38.663Z,97752.05
2018-01-02T20:46:06.286Z,97741.80
2018-01-02T20:48:34.029Z,97737.95
2018-01-02T20:51:01.568Z,97736.33
2018-01-02T20:53:29.101Z,97716.31
2018-01-02T20:55:56.643Z,97713.66
2018-01-02T20:58:24.193Z,97704.73
2018-01-02T21:00:52.583Z,97705.81
2018-01-02T21:03:21.438Z,97708.81
2018-01-02T21:05:48.997Z,97706.47
2018-01-02T21:08:16.571Z,97713.61
2018-01-02T21:10:44.843Z,97706.97
2018-01-02T21:13:12.416Z,97703.96
2018-01-02T21:15:39.971Z,97701.05
2018-01-02T21:18:07.498Z,97699.08
2018-01-02T21:20:35.046Z,97700.38
2018-01-02T21:23:02.927Z,97688.48
2018-01-02T21:25:30.452Z,97677.60
2018-01-02T21:27:58.666Z,97671.48
2018-01-02T21:30:27.547Z,97661.31
2018-01-02T21:32:55.085Z,97652.78
2018-01-02T21:35:24.857Z,97641.81
2018-01-02T21:38:00.475Z,97633.29
2018-01-02T21:40:28.357Z,97624.09
2018-01-02T21:42:55.908Z,97620.43
2018-01-02T21:45:23.452Z,97616.68
2018-01-02T21:47:51.635Z,97604.20
2018-01-02T21:50:19.153Z,97598.23
2018-01-02T21:52:47.393Z,97591.70
2018-01-02T21:55:14.917Z,97587.98
2018-01-02T21:57:43.451Z,97585.23
2018-01-02T22:00:11.282Z,97576.55
2018-01-02T22:02:38.817Z,97580.00
2018-01-02T22:05:06.503Z,97579.39
2018-01-02T22:07:35.324Z,97583.81
2018-01-02T22:10:03.376Z,97578.13
2018-01-02T22:12:30.907Z,97578.40
2018-01-02T22:14:58.449Z,97566.80
2018-01-02T22:17:25.977Z,97566.26
2018-01-02T22:19:53.517Z,97556.11
2018-01-02T22:22:21.660Z,97554.75
2018-01-02T22:24:49.192Z,97557.13
2018-01-02T22:27:17.393Z,97547.20
2018-01-02T22:29:44.980Z,97550.27
2018-01-02T22:32:13.042Z,97548.75
2018-01-02T22:34:40.648Z,97542.00
2018-01-02T22:37:08.181Z,97539.51
2018-01-02T22:39:35.722Z,97537.47
2018-01-02T22:42:03.283Z,97540.66
2018-01-02T22:44:30.806Z,97532.73
2018-01-02T22:46:58.315Z,97521.87
2018-01-02T22:49:25.824Z,97517.59
2018-01-02T22:51:53.336Z,97514.34
2018-01-02T22:54:20.879Z,97508.63
2018-01-02T22:56:48.440Z,97498.49
2018-01-02T22:59:15.970Z,97495.10
2018-01-02T23:01:43.502Z,97484.31
2018-01-02T23:04:11.031Z,97481.44
2018-01-02T23:06:38.587Z,97469.34
2018-01-02T23:09:06.122Z,97460.56
2018-01-02T23:11:33.635Z,97464.82
2018-01-02T23:14:01.178Z,97456.95
2018-01-02T23:16:28.683Z,97452.27
2018-01-02T23:18:56.231Z,97439.77
2018-01-02T23:21:23.768Z,97441.00
2018-01-02T23:23:51.302Z,97428.69
2018-01-02T23:26:18.836Z,97432.63
2018-01-02T23:28:46.356Z,97423.66
2018-01-02T23:31:13.911Z,97412.76
2018-01-02T23:33:41.445Z,97406.67
2018-01-02T23:36:08.971Z,97397.89
2018-01-02T23:38:36.506Z,97391.06
2018-01-02T23:41:04.022Z,97380.95
2018-01-02T23:43:31.552Z,97380.27
2018-01-02T23:45:59.065Z,97376.16
2018-01-02T23:48:26.577Z,97357.56
2018-01-02T23:50:54.069Z,97361.25
2018-01-02T23:53:21.621Z,97357.89
2018-01-02T23:55:49.128Z,97349.27
2018-01-02T23:58:16.627Z,97337.28
